sensor_id;sensor_type;location;lat;lon;timestamp;pressure;altitude;pressure_sealevel;temperature
19040;BMP180;9652;49.014;12.052;2022-10-16T00:01:18;97803.00;;;18.20
19040;BMP180;9652;49.014;12.052;2022-10-16T00:03:47;97807.00;;;18.20
19040;BMP180;9652;49.014;12.052;2022-10-16T00:06:17;97812.00;;;18.30
19040;BMP180;9652;49.014;12.052;2022-10-16T00:08:44;97807.00;;;18.30
19040;BMP180;9652;49.014;12.052;2022-10-16T00:11:19;97792.00;;;18.20
19040;BMP180;9652;49.014;12.052;2022-10-16T00:13:50;97800.00;;;18.20
19040;BMP180;9652;49.014;12.052;2022-10-16T00:16:18;97795.00;;;18.30
19040;BMP180;9652;49.014;12.052;2022-10-16T00:18:46;97794.00;;;18.30
19040;BMP180;9652;49.014;12.052;2022-10-16T00:21:16;97806.00;;;18.20
19040;BMP180;9652;49.014;12.052;2022-10-16T00:23:44;97806.00;;;18.30
19040;BMP180;9652;49.014;12.052;2022-10-16T00:26:15;97746.00;;;18.20
19040;BMP180;9652;49.014;12.052;2022-10-16T00:28:46;97799.00;;;18.30
19040;BMP180;9652;49.014;12.052;2022-10-16T00:31:13;97809.00;;;18.20
19040;BMP180;9652;49.014;12.052;2022-10-16T00:33:41;97806.00;;;18.30
19040;BMP180;9652;49.014;12.052;2022-10-16T00:36:12;97809.00;;;18.20
19040;BMP180;9652;49.014;12.052;2022-10-16T00:38:40;97809.00;;;18.20
19040;BMP180;9652;49.014;12.052;2022-10-16T00:41:11;97803.00;;;18.30
19040;BMP180;9652;49.014;12.052;2022-10-16T00:43:41;97806.00;;;18.20
19040;BMP180;9652;49.014;12.052;2022-10-16T00:46:20;97799.00;;;18.20
19040;BMP180;9652;49.014;12.052;2022-10-16T00:48:53;97813.00;;;18.20
19040;BMP180;9652;49.014;12.052;2022-10-16T00:51:32;97822.00;;;18.20
19040;BMP180;9652;49.014;12.052;2022-10-16T00:54:02;97809.00;;;18.20
19040;BMP180;9652;49.014;12.052;2022-10-16T00:56:30;97798.00;;;18.20
19040;BMP180;9652;49.014;12.052;2022-10-16T00:58:59;97820.00;;;18.20
19040;BMP180;9652;49.014;12.052;2022-10-16T01:01:29;97820.00;;;18.20
19040;BMP180;9652;49.014;12.052;2022-10-16T01:03:56;97819.00;;;18.20
19040;BMP180;9652;49.014;12.052;2022-10-16T01:06:30;97821.00;;;18.20
19040;BMP180;9652;49.014;12.052;2022-10-16T01:09:16;97801.00;;;18.20
19040;BMP180;9652;49.014;12.052;2022-10-16T01:11:57;97815.00;;;18.20
19040;BMP180;9652;49.014;12.052;2022-10-16T01:14:39;97802.00;;;18.20
19040;BMP180;9652;49.014;12.052;2022-10-16T01:17:12;97813.00;;;18.20
19040;BMP180;9652;49.014;12.052;2022-10-16T01:20:03;97814.00;;;18.20
19040;BMP180;9652;49.014;12.052;2022-10-16T01:22:42;97827.00;;;18.20
19040;BMP180;9652;49.014;12.052;2022-10-16T01:25:23;97825.00;;;18.20
19040;BMP180;9652;49.014;12.052;2022-10-16T01:27:53;97829.00;;;18.20
19040;BMP180;9652;49.014;12.052;2022-10-16T01:30:26;97829.00;;;18.20
19040;BMP180;9652;49.014;12.052;2022-10-16T01:33:01;97850.00;;;18.20
19040;BMP180;9652;49.014;12.052;2022-10-16T01:35:34;97848.00;;;18.20
19040;BMP180;9652;49.014;12.052;2022-10-16T01:38:06;97843.00;;;18.20
19040;BMP180;9652;49.014;12.052;2022-10-16T01:40:41;97852.00;;;18.20
19040;BMP180;9652;49.014;12.052;2022-10-16T01:43:17;97841.00;;;18.20
19040;BMP180;9652;49.014;12.052;2022-10-16T01:45:46;97846.00;;;18.20
19040;BMP180;9652;49.014;12.052;2022-10-16T01:48:18;97844.00;;;18.10
19040;BMP180;9652;49.014;12.052;2022-10-16T01:50:55;97854.00;;;18.20
19040;BMP180;9652;49.014;12.052;2022-10-16T01:53:24;97855.00;;;18.20
19040;BMP180;9652;49.014;12.052;2022-10-16T01:55:55;97852.00;;;18.20
19040;BMP180;9652;49.014;12.052;2022-10-16T01:58:27;97851.00;;;18.20
19040;BMP180;9652;49.014;12.052;2022-10-16T02:00:57;97846.00;;;18.20
19040;BMP180;9652;49.014;12.052;2022-10-16T02:03:24;97848.00;;;18.20
19040;BMP180;9652;49.014;12.052;2022-10-16T02:05:54;97848.00;;;18.20
19040;BMP180;9652;49.014;12.052;2022-10-16T02:08:26;97861.00;;;18.10
19040;BMP180;9652;49.014;12.052;2022-10-16T02:10:55;97853.00;;;18.10
19040;BMP180;9652;49.014;12.052;2022-10-16T02:13:29;97858.00;;;18.10
19040;BMP180;9652;49.014;12.052;2022-10-16T02:15:58;97849.00;;;18.20
19040;BMP180;9652;49.014;12.052;2022-10-16T02:18:26;97846.00;;;18.10
19040;BMP180;9652;49.014;12.052;2022-10-16T02:21:00;97842.00;;;18.20
19040;BMP180;9652;49.014;12.052;2022-10-16T02:23:40;97853.00;;;18.10
19040;BMP180;9652;49.014;12.052;2022-10-16T02:26:16;97851.00;;;18.00
19040;BMP180;9652;49.014;12.052;2022-10-16T02:28:53;97845.00;;;18.10
19040;BMP180;9652;49.014;12.052;2022-10-16T02:31:27;97845.00;;;18.10
19040;BMP180;9652;49.014;12.052;2022-10-16T02:33:58;97845.00;;;18.10
19040;BMP180;9652;49.014;12.052;2022-10-16T02:36:27;97844.00;;;18.10
19040;BMP180;9652;49.014;12.052;2022-10-16T02:38:55;97848.00;;;18.10
19040;BMP180;9652;49.014;12.052;2022-10-16T02:41:24;97848.00;;;18.10
19040;BMP180;9652;49.014;12.052;2022-10-16T02:43:52;97856.00;;;18.10
19040;BMP180;9652;49.014;12.052;2022-10-16T02:46:21;97861.00;;;18.10
19040;BMP180;9652;49.014;12.052;2022-10-16T02:48:48;97858.00;;;18.00
19040;BMP180;9652;49.014;12.052;2022-10-16T02:51:15;97856.00;;;18.00
19040;BMP180;9652;49.014;12.052;2022-10-16T02:53:42;97862.00;;;18.00
19040;BMP180;9652;49.014;12.052;2022-10-16T02:56:09;97871.00;;;18.00
19040;BMP180;9652;49.014;12.052;2022-10-16T02:58:36;97839.00;;;18.00
19040;BMP180;9652;49.014;12.052;2022-10-16T03:01:05;97865.00;;;18.00
19040;BMP180;9652;49.014;12.052;2022-10-16T03:03:32;97871.00;;;18.00
19040;BMP180;9652;49.014;12.052;2022-10-16T03:05:59;97854.00;;;18.00
19040;BMP180;9652;49.014;12.052;2022-10-16T03:08:26;97845.00;;;18.00
19040;BMP180;9652;49.014;12.052;2022-10-16T03:10:53;97848.00;;;18.00
19040;BMP180;9652;49.014;12.052;2022-10-16T03:13:20;97863.00;;;18.00
19040;BMP180;9652;49.014;12.052;2022-10-16T03:15:48;97876.00;;;18.00
19040;BMP180;9652;49.014;12.052;2022-10-16T03:18:17;97860.00;;;18.00
19040;BMP180;9652;49.014;12.052;2022-10-16T03:20:44;97862.00;;;18.00
19040;BMP180;9652;49.014;12.052;2022-10-16T03:23:12;97875.00;;;18.00
19040;BMP180;9652;49.014;12.052;2022-10-16T03:25:39;97871.00;;;18.00
19040;BMP180;9652;49.014;12.052;2022-10-16T03:28:06;97876.00;;;18.00
19040;BMP180;9652;49.014;12.052;2022-10-16T03:30:34;97878.00;;;18.00
19040;BMP180;9652;49.014;12.052;2022-10-16T03:33:01;97868.00;;;18.00
19040;BMP180;9652;49.014;12.052;2022-10-16T03:35:29;97873.00;;;18.00
19040;BMP180;9652;49.014;12.052;2022-10-16T03:37:56;97874.00;;;18.10
19040;BMP180;9652;49.014;12.052;2022-10-16T03:40:24;97872.00;;;18.10
19040;BMP180;9652;49.014;12.052;2022-10-16T03:42:51;97878.00;;;18.10
19040;BMP180;9652;49.014;12.052;2022-10-16T03:45:21;97879.00;;;18.10
19040;BMP180;9652;49.014;12.052;2022-10-16T03:47:48;97872.00;;;18.10
19040;BMP180;9652;49.014;12.052;2022-10-16T03:50:15;97878.00;;;18.10
19040;BMP180;9652;49.014;12.052;2022-10-16T03:52:44;97868.00;;;18.10
19040;BMP180;9652;49.014;12.052;2022-10-16T03:55:11;97867.00;;;18.10
19040;BMP180;9652;49.014;12.052;2022-10-16T03:57:38;97869.00;;;18.10
19040;BMP180;9652;49.014;12.052;2022-10-16T04:00:07;97863.00;;;18.10
19040;BMP180;9652;49.014;12.052;2022-10-16T04:02:38;97868.00;;;18.10
19040;BMP180;9652;49.014;12.052;2022-10-16T04:05:06;97867.00;;;18.00
19040;BMP180;9652;49.014;12.052;2022-10-16T04:07:33;97873.00;;;18.00
19040;BMP180;9652;49.014;12.052;2022-10-16T04:10:02;97879.00;;;17.90
19040;BMP180;9652;49.014;12.052;2022-10-16T04:12:29;97883.00;;;17.90
19040;BMP180;9652;49.014;12.052;2022-10-16T04:14:57;97891.00;;;17.80
19040;BMP180;9652;49.014;12.052;2022-10-16T04:17:24;97885.00;;;17.80
19040;BMP180;9652;49.014;12.052;2022-10-16T04:19:51;97883.00;;;17.80
19040;BMP180;9652;49.014;12.052;2022-10-16T04:22:18;97883.00;;;17.80
19040;BMP180;9652;49.014;12.052;2022-10-16T04:24:45;97903.00;;;17.80
19040;BMP180;9652;49.014;12.052;2022-10-16T04:27:14;97910.00;;;17.80
19040;BMP180;9652;49.014;12.052;2022-10-16T04:29:41;97912.00;;;17.80
19040;BMP180;9652;49.014;12.052;2022-10-16T04:32:09;97907.00;;;17.80
19040;BMP180;9652;49.014;12.052;2022-10-16T04:34:36;97914.00;;;17.80
19040;BMP180;9652;49.014;12.052;2022-10-16T04:37:03;97902.00;;;17.80
19040;BMP180;9652;49.014;12.052;2022-10-16T04:39:31;97911.00;;;17.80
19040;BMP180;9652;49.014;12.052;2022-10-16T04:41:58;97902.00;;;17.80
19040;BMP180;9652;49.014;12.052;2022-10-16T04:44:26;97908.00;;;17.80
19040;BMP180;9652;49.014;12.052;2022-10-16T04:46:53;97916.00;;;17.90
19040;BMP180;9652;49.014;12.052;2022-10-16T04:49:20;97914.00;;;17.90
19040;BMP180;9652;49.014;12.052;2022-10-16T04:51:47;97917.00;;;17.90
19040;BMP180;9652;49.014;12.052;2022-10-16T04:54:14;97914.00;;;17.90
19040;BMP180;9652;49.014;12.052;2022-10-16T04:56:41;97907.00;;;17.90
19040;BMP180;9652;49.014;12.052;2022-10-16T04:59:13;97912.00;;;17.90
19040;BMP180;9652;49.014;12.052;2022-10-16T05:01:42;97915.00;;;17.90
19040;BMP180;9652;49.014;12.052;2022-10-16T05:04:10;97904.00;;;17.90
19040;BMP180;9652;49.014;12.052;2022-10-16T05:06:38;97922.00;;;17.90
19040;BMP180;9652;49.014;12.052;2022-10-16T05:09:05;97922.00;;;17.90
19040;BMP180;9652;49.014;12.052;2022-10-16T05:11:32;97920.00;;;17.80
19040;BMP180;9652;49.014;12.052;2022-10-16T05:14:00;97921.00;;;17.90
19040;BMP180;9652;49.014;12.052;2022-10-16T05:16:27;97923.00;;;17.90
19040;BMP180;9652;49.014;12.052;2022-10-16T05:18:55;97925.00;;;17.90
19040;BMP180;9652;49.014;12.052;2022-10-16T05:21:23;97929.00;;;17.80
19040;BMP180;9652;49.014;12.052;2022-10-16T05:23:50;97937.00;;;17.90
19040;BMP180;9652;49.014;12.052;2022-10-16T05:26:17;97908.00;;;17.90
19040;BMP180;9652;49.014;12.052;2022-10-16T05:28:44;97936.00;;;17.90
19040;BMP180;9652;49.014;12.052;2022-10-16T05:31:11;97924.00;;;17.90
19040;BMP180;9652;49.014;12.052;2022-10-16T05:33:38;97929.00;;;17.90
19040;BMP180;9652;49.014;12.052;2022-10-16T05:36:09;97926.00;;;17.90
19040;BMP180;9652;49.014;12.052;2022-10-16T05:38:37;97929.00;;;17.80
19040;BMP180;9652;49.014;12.052;2022-10-16T05:41:05;97919.00;;;17.80
19040;BMP180;9652;49.014;12.052;2022-10-16T05:43:33;97877.00;;;17.80
19040;BMP180;9652;49.014;12.052;2022-10-16T05:46:03;97904.00;;;17.80
19040;BMP180;9652;49.014;12.052;2022-10-16T05:48:31;97888.00;;;17.80
19040;BMP180;9652;49.014;12.052;2022-10-16T05:51:00;97883.00;;;17.80
19040;BMP180;9652;49.014;12.052;2022-10-16T05:53:30;97892.00;;;17.80
19040;BMP180;9652;49.014;12.052;2022-10-16T05:55:58;97913.00;;;17.80
19040;BMP180;9652;49.014;12.052;2022-10-16T05:58:30;97913.00;;;17.80
19040;BMP180;9652;49.014;12.052;2022-10-16T06:01:02;97922.00;;;17.80
19040;BMP180;9652;49.014;12.052;2022-10-16T06:03:29;97909.00;;;17.80
19040;BMP180;9652;49.014;12.052;2022-10-16T06:05:57;97930.00;;;17.70
19040;BMP180;9652;49.014;12.052;2022-10-16T06:08:24;97896.00;;;17.70
19040;BMP180;9652;49.014;12.052;2022-10-16T06:11:02;97933.00;;;17.70
19040;BMP180;9652;49.014;12.052;2022-10-16T06:13:29;97931.00;;;17.70
19040;BMP180;9652;49.014;12.052;2022-10-16T06:15:58;97944.00;;;17.70
19040;BMP180;9652;49.014;12.052;2022-10-16T06:18:26;97942.00;;;17.70
19040;BMP180;9652;49.014;12.052;2022-10-16T06:20:54;97933.00;;;17.70
19040;BMP180;9652;49.014;12.052;2022-10-16T06:23:22;97947.00;;;17.60
19040;BMP180;9652;49.014;12.052;2022-10-16T06:25:49;97955.00;;;17.70
19040;BMP180;9652;49.014;12.052;2022-10-16T06:28:18;97958.00;;;17.70
19040;BMP180;9652;49.014;12.052;2022-10-16T06:30:45;97966.00;;;17.70
19040;BMP180;9652;49.014;12.052;2022-10-16T06:33:13;97968.00;;;17.70
19040;BMP180;9652;49.014;12.052;2022-10-16T06:35:40;97979.00;;;17.70
19040;BMP180;9652;49.014;12.052;2022-10-16T06:38:07;97982.00;;;17.70
19040;BMP180;9652;49.014;12.052;2022-10-16T06:40:34;97983.00;;;17.70
19040;BMP180;9652;49.014;12.052;2022-10-16T06:43:01;97983.00;;;17.70
19040;BMP180;9652;49.014;12.052;2022-10-16T06:45:30;98001.00;;;17.70
19040;BMP180;9652;49.014;12.052;2022-10-16T06:47:58;97999.00;;;17.70
19040;BMP180;9652;49.014;12.052;2022-10-16T06:50:25;98001.00;;;17.70
19040;BMP180;9652;49.014;12.052;2022-10-16T06:52:52;97998.00;;;17.80
19040;BMP180;9652;49.014;12.052;2022-10-16T06:55:19;98005.00;;;17.80
19040;BMP180;9652;49.014;12.052;2022-10-16T06:57:47;98006.00;;;17.80
19040;BMP180;9652;49.014;12.052;2022-10-16T07:00:15;98024.00;;;17.80
19040;BMP180;9652;49.014;12.052;2022-10-16T07:02:44;98036.00;;;17.80
19040;BMP180;9652;49.014;12.052;2022-10-16T07:05:11;98029.00;;;17.90
19040;BMP180;9652;49.014;12.052;2022-10-16T07:07:38;98031.00;;;17.90
19040;BMP180;9652;49.014;12.052;2022-10-16T07:10:07;98023.00;;;18.00
19040;BMP180;9652;49.014;12.052;2022-10-16T07:12:35;98041.00;;;18.00
19040;BMP180;9652;49.014;12.052;2022-10-16T07:15:03;98047.00;;;18.10
19040;BMP180;9652;49.014;12.052;2022-10-16T07:17:30;98053.00;;;18.20
19040;BMP180;9652;49.014;12.052;2022-10-16T07:19:59;98057.00;;;18.20
19040;BMP180;9652;49.014;12.052;2022-10-16T07:22:28;98062.00;;;18.30
19040;BMP180;9652;49.014;12.052;2022-10-16T07:24:56;98050.00;;;18.40
19040;BMP180;9652;49.014;12.052;2022-10-16T07:27:23;98053.00;;;18.40
19040;BMP180;9652;49.014;12.052;2022-10-16T07:29:52;98035.00;;;18.50
19040;BMP180;9652;49.014;12.052;2022-10-16T07:32:20;98049.00;;;18.50
19040;BMP180;9652;49.014;12.052;2022-10-16T07:34:47;98016.00;;;18.60
19040;BMP180;9652;49.014;12.052;2022-10-16T07:37:16;98045.00;;;18.60
19040;BMP180;9652;49.014;12.052;2022-10-16T07:39:44;98047.00;;;18.60
19040;BMP180;9652;49.014;12.052;2022-10-16T07:42:12;98045.00;;;18.70
19040;BMP180;9652;49.014;12.052;2022-10-16T07:44:39;98054.00;;;18.70
19040;BMP180;9652;49.014;12.052;2022-10-16T07:47:06;98050.00;;;18.80
19040;BMP180;9652;49.014;12.052;2022-10-16T07:49:34;98069.00;;;18.90
19040;BMP180;9652;49.014;12.052;2022-10-16T07:52:01;98070.00;;;18.90
19040;BMP180;9652;49.014;12.052;2022-10-16T07:54:30;98039.00;;;19.00
19040;BMP180;9652;49.014;12.052;2022-10-16T07:56:58;98063.00;;;19.10
19040;BMP180;9652;49.014;12.052;2022-10-16T07:59:25;98076.00;;;19.20
19040;BMP180;9652;49.014;12.052;2022-10-16T08:01:52;98058.00;;;19.20
19040;BMP180;9652;49.014;12.052;2022-10-16T08:04:19;98009.00;;;19.20
19040;BMP180;9652;49.014;12.052;2022-10-16T08:06:47;98070.00;;;19.30
19040;BMP180;9652;49.014;12.052;2022-10-16T08:09:15;98058.00;;;19.30
19040;BMP180;9652;49.014;12.052;2022-10-16T08:11:44;98067.00;;;19.40
19040;BMP180;9652;49.014;12.052;2022-10-16T08:14:11;98083.00;;;19.40
19040;BMP180;9652;49.014;12.052;2022-10-16T08:16:38;98077.00;;;19.50
19040;BMP180;9652;49.014;12.052;2022-10-16T08:19:05;98088.00;;;19.50
19040;BMP180;9652;49.014;12.052;2022-10-16T08:21:32;98063.00;;;19.60
19040;BMP180;9652;49.014;12.052;2022-10-16T08:24:00;98093.00;;;19.70
19040;BMP180;9652;49.014;12.052;2022-10-16T08:26:27;98095.00;;;19.90
19040;BMP180;9652;49.014;12.052;2022-10-16T08:28:56;98095.00;;;19.90
19040;BMP180;9652;49.014;12.052;2022-10-16T08:31:24;98093.00;;;20.10
19040;BMP180;9652;49.014;12.052;2022-10-16T08:33:52;98050.00;;;20.10
19040;BMP180;9652;49.014;12.052;2022-10-16T08:36:20;98096.00;;;20.20
19040;BMP180;9652;49.014;12.052;2022-10-16T08:38:49;98101.00;;;20.30
19040;BMP180;9652;49.014;12.052;2022-10-16T08:42:07;98105.00;;;20.30
19040;BMP180;9652;49.014;12.052;2022-10-16T08:47:57;98090.00;;;20.30
19040;BMP180;9652;49.014;12.052;2022-10-16T08:50:30;98083.00;;;20.20
19040;BMP180;9652;49.014;12.052;2022-10-16T08:52:58;98087.00;;;20.20
19040;BMP180;9652;49.014;12.052;2022-10-16T08:55:37;98066.00;;;20.20
19040;BMP180;9652;49.014;12.052;2022-10-16T08:58:13;98070.00;;;20.20
19040;BMP180;9652;49.014;12.052;2022-10-16T09:00:45;98076.00;;;20.20
19040;BMP180;9652;49.014;12.052;2022-10-16T09:03:23;98078.00;;;20.20
19040;BMP180;9652;49.014;12.052;2022-10-16T09:06:08;98089.00;;;20.20
19040;BMP180;9652;49.014;12.052;2022-10-16T09:08:48;98088.00;;;20.20
19040;BMP180;9652;49.014;12.052;2022-10-16T09:11:33;98089.00;;;20.20
19040;BMP180;9652;49.014;12.052;2022-10-16T09:14:28;98091.00;;;20.20
19040;BMP180;9652;49.014;12.052;2022-10-16T09:17:24;98089.00;;;20.30
19040;BMP180;9652;49.014;12.052;2022-10-16T09:20:04;98070.00;;;20.30
19040;BMP180;9652;49.014;12.052;2022-10-16T09:22:36;98086.00;;;20.40
19040;BMP180;9652;49.014;12.052;2022-10-16T09:25:13;98088.00;;;20.50
19040;BMP180;9652;49.014;12.052;2022-10-16T09:27:42;98091.00;;;20.50
19040;BMP180;9652;49.014;12.052;2022-10-16T09:30:15;98096.00;;;20.60
19040;BMP180;9652;49.014;12.052;2022-10-16T09:32:47;98117.00;;;20.70
19040;BMP180;9652;49.014;12.052;2022-10-16T09:35:18;98108.00;;;20.80
19040;BMP180;9652;49.014;12.052;2022-10-16T09:37:50;98103.00;;;20.90
19040;BMP180;9652;49.014;12.052;2022-10-16T09:40:26;98115.00;;;20.90
19040;BMP180;9652;49.014;12.052;2022-10-16T09:43:03;98130.00;;;21.00
19040;BMP180;9652;49.014;12.052;2022-10-16T09:45:32;98124.00;;;21.10
19040;BMP180;9652;49.014;12.052;2022-10-16T09:48:11;98132.00;;;21.10
19040;BMP180;9652;49.014;12.052;2022-10-16T09:50:40;98128.00;;;21.20
19040;BMP180;9652;49.014;12.052;2022-10-16T09:53:13;98148.00;;;21.30
19040;BMP180;9652;49.014;12.052;2022-10-16T09:55:51;98146.00;;;21.30
19040;BMP180;9652;49.014;12.052;2022-10-16T09:58:22;98140.00;;;21.40
19040;BMP180;9652;49.014;12.052;2022-10-16T10:00:53;98128.00;;;21.50
19040;BMP180;9652;49.014;12.052;2022-10-16T10:03:37;98136.00;;;21.50
19040;BMP180;9652;49.014;12.052;2022-10-16T10:06:18;98087.00;;;21.60
19040;BMP180;9652;49.014;12.052;2022-10-16T10:09:05;98144.00;;;21.60
19040;BMP180;9652;49.014;12.052;2022-10-16T10:11:45;98115.00;;;21.60
19040;BMP180;9652;49.014;12.052;2022-10-16T10:14:31;98144.00;;;21.70
19040;BMP180;9652;49.014;12.052;2022-10-16T10:17:19;98116.00;;;21.70
19040;BMP180;9652;49.014;12.052;2022-10-16T10:19:52;98139.00;;;21.80
19040;BMP180;9652;49.014;12.052;2022-10-16T10:22:26;98171.00;;;21.80
19040;BMP180;9652;49.014;12.052;2022-10-16T10:25:36;98170.00;;;21.90
19040;BMP180;9652;49.014;12.052;2022-10-16T10:28:24;98133.00;;;21.90
19040;BMP180;9652;49.014;12.052;2022-10-16T10:31:02;98119.00;;;22.00
19040;BMP180;9652;49.014;12.052;2022-10-16T10:33:41;98129.00;;;22.00
19040;BMP180;9652;49.014;12.052;2022-10-16T10:36:25;98137.00;;;22.10
19040;BMP180;9652;49.014;12.052;2022-10-16T10:38:59;98110.00;;;22.10
19040;BMP180;9652;49.014;12.052;2022-10-16T10:42:13;98120.00;;;22.20
19040;BMP180;9652;49.014;12.052;2022-10-16T10:48:06;98122.00;;;22.30
19040;BMP180;9652;49.014;12.052;2022-10-16T10:50:44;98128.00;;;22.40
19040;BMP180;9652;49.014;12.052;2022-10-16T10:53:34;98133.00;;;22.40
19040;BMP180;9652;49.014;12.052;2022-10-16T10:56:20;98136.00;;;22.50
19040;BMP180;9652;49.014;12.052;2022-10-16T10:59:20;98134.00;;;22.60
19040;BMP180;9652;49.014;12.052;2022-10-16T11:01:58;98128.00;;;22.70
19040;BMP180;9652;49.014;12.052;2022-10-16T11:04:58;98131.00;;;22.80
19040;BMP180;9652;49.014;12.052;2022-10-16T11:07:35;98124.00;;;22.90
19040;BMP180;9652;49.014;12.052;2022-10-16T11:10:15;98120.00;;;23.00
19040;BMP180;9652;49.014;12.052;2022-10-16T11:12:47;98115.00;;;23.20
19040;BMP180;9652;49.014;12.052;2022-10-16T11:15:21;98126.00;;;23.20
19040;BMP180;9652;49.014;12.052;2022-10-16T11:17:55;98129.00;;;23.30
19040;BMP180;9652;49.014;12.052;2022-10-16T11:20:28;98134.00;;;23.40
19040;BMP180;9652;49.014;12.052;2022-10-16T11:23:05;98005.00;;;23.50
19040;BMP180;9652;49.014;12.052;2022-10-16T11:25:35;98136.00;;;23.60
19040;BMP180;9652;49.014;12.052;2022-10-16T11:28:11;98134.00;;;23.70
19040;BMP180;9652;49.014;12.052;2022-10-16T11:30:48;98133.00;;;23.80
19040;BMP180;9652;49.014;12.052;2022-10-16T11:33:28;98126.00;;;23.90
19040;BMP180;9652;49.014;12.052;2022-10-16T11:36:05;98119.00;;;24.00
19040;BMP180;9652;49.014;12.052;2022-10-16T11:38:43;98127.00;;;24.10
19040;BMP180;9652;49.014;12.052;2022-10-16T11:41:22;98125.00;;;24.20
19040;BMP180;9652;49.014;12.052;2022-10-16T11:44:09;98129.00;;;24.40
19040;BMP180;9652;49.014;12.052;2022-10-16T11:46:49;98061.00;;;24.50
19040;BMP180;9652;49.014;12.052;2022-10-16T11:49:22;98093.00;;;24.60
19040;BMP180;9652;49.014;12.052;2022-10-16T11:52:02;98094.00;;;24.60
19040;BMP180;9652;49.014;12.052;2022-10-16T11:54:42;98127.00;;;24.60
19040;BMP180;9652;49.014;12.052;2022-10-16T11:57:20;98113.00;;;24.50
19040;BMP180;9652;49.014;12.052;2022-10-16T11:59:56;98113.00;;;24.50
19040;BMP180;9652;49.014;12.052;2022-10-16T12:02:38;98097.00;;;24.40
19040;BMP180;9652;49.014;12.052;2022-10-16T12:05:24;98111.00;;;24.30
19040;BMP180;9652;49.014;12.052;2022-10-16T12:08:08;98112.00;;;24.40
19040;BMP180;9652;49.014;12.052;2022-10-16T12:10:38;98114.00;;;24.30
19040;BMP180;9652;49.014;12.052;2022-10-16T12:13:35;98061.00;;;24.30
19040;BMP180;9652;49.014;12.052;2022-10-16T12:16:20;98073.00;;;24.30
19040;BMP180;9652;49.014;12.052;2022-10-16T12:18:49;98091.00;;;24.30
19040;BMP180;9652;49.014;12.052;2022-10-16T12:21:17;98094.00;;;24.20
19040;BMP180;9652;49.014;12.052;2022-10-16T12:23:51;98096.00;;;24.20
19040;BMP180;9652;49.014;12.052;2022-10-16T12:26:28;98098.00;;;24.20
19040;BMP180;9652;49.014;12.052;2022-10-16T12:29:14;98100.00;;;24.20
19040;BMP180;9652;49.014;12.052;2022-10-16T12:31:47;98081.00;;;24.20
19040;BMP180;9652;49.014;12.052;2022-10-16T12:34:24;98099.00;;;24.20
19040;BMP180;9652;49.014;12.052;2022-10-16T12:36:55;98101.00;;;24.20
19040;BMP180;9652;49.014;12.052;2022-10-16T12:39:24;98111.00;;;24.20
19040;BMP180;9652;49.014;12.052;2022-10-16T12:42:04;98104.00;;;24.20
19040;BMP180;9652;49.014;12.052;2022-10-16T12:44:36;98103.00;;;24.10
19040;BMP180;9652;49.014;12.052;2022-10-16T12:47:03;98098.00;;;24.10
19040;BMP180;9652;49.014;12.052;2022-10-16T12:49:37;98115.00;;;24.10
19040;BMP180;9652;49.014;12.052;2022-10-16T12:52:26;98108.00;;;24.10
19040;BMP180;9652;49.014;12.052;2022-10-16T12:54:57;98105.00;;;24.10
19040;BMP180;9652;49.014;12.052;2022-10-16T12:57:46;98121.00;;;24.10
19040;BMP180;9652;49.014;12.052;2022-10-16T13:00:31;98114.00;;;24.20
19040;BMP180;9652;49.014;12.052;2022-10-16T13:03:44;98115.00;;;24.20
19040;BMP180;9652;49.014;12.052;2022-10-16T13:06:29;98126.00;;;24.20
19040;BMP180;9652;49.014;12.052;2022-10-16T13:09:18;98128.00;;;24.20
19040;BMP180;9652;49.014;12.052;2022-10-16T13:12:14;98131.00;;;24.20
19040;BMP180;9652;49.014;12.052;2022-10-16T13:15:36;98123.00;;;24.20
19040;BMP180;9652;49.014;12.052;2022-10-16T13:18:15;98127.00;;;24.20
19040;BMP180;9652;49.014;12.052;2022-10-16T13:21:02;98127.00;;;24.10
19040;BMP180;9652;49.014;12.052;2022-10-16T13:23:40;98130.00;;;24.10
19040;BMP180;9652;49.014;12.052;2022-10-16T13:26:22;98128.00;;;24.10
19040;BMP180;9652;49.014;12.052;2022-10-16T13:28:51;98132.00;;;24.10
19040;BMP180;9652;49.014;12.052;2022-10-16T13:31:22;98134.00;;;24.00
19040;BMP180;9652;49.014;12.052;2022-10-16T13:33:53;98132.00;;;24.00
19040;BMP180;9652;49.014;12.052;2022-10-16T13:36:25;98113.00;;;24.00
19040;BMP180;9652;49.014;12.052;2022-10-16T13:39:12;98116.00;;;23.90
19040;BMP180;9652;49.014;12.052;2022-10-16T13:41:40;98122.00;;;23.90
19040;BMP180;9652;49.014;12.052;2022-10-16T13:44:14;98131.00;;;23.90
19040;BMP180;9652;49.014;12.052;2022-10-16T13:46:43;98133.00;;;23.90
19040;BMP180;9652;49.014;12.052;2022-10-16T13:49:16;98130.00;;;23.90
19040;BMP180;9652;49.014;12.052;2022-10-16T13:51:55;98110.00;;;23.90
19040;BMP180;9652;49.014;12.052;2022-10-16T13:54:23;98147.00;;;23.90
19040;BMP180;9652;49.014;12.052;2022-10-16T13:56:51;98137.00;;;23.90
19040;BMP180;9652;49.014;12.052;2022-10-16T13:59:27;98142.00;;;23.80
19040;BMP180;9652;49.014;12.052;2022-10-16T14:02:15;98146.00;;;23.90
19040;BMP180;9652;49.014;12.052;2022-10-16T14:04:43;98137.00;;;23.90
19040;BMP180;9652;49.014;12.052;2022-10-16T14:07:14;98142.00;;;23.90
19040;BMP180;9652;49.014;12.052;2022-10-16T14:09:49;98125.00;;;23.90
19040;BMP180;9652;49.014;12.052;2022-10-16T14:12:17;98135.00;;;23.90
19040;BMP180;9652;49.014;12.052;2022-10-16T14:14:48;98152.00;;;23.90
19040;BMP180;9652;49.014;12.052;2022-10-16T14:17:22;98153.00;;;23.90
19040;BMP180;9652;49.014;12.052;2022-10-16T14:19:52;98137.00;;;23.90
19040;BMP180;9652;49.014;12.052;2022-10-16T14:22:30;98156.00;;;23.90
19040;BMP180;9652;49.014;12.052;2022-10-16T14:24:58;98153.00;;;23.90
19040;BMP180;9652;49.014;12.052;2022-10-16T14:27:31;98145.00;;;23.90
19040;BMP180;9652;49.014;12.052;2022-10-16T14:30:17;98155.00;;;23.90
19040;BMP180;9652;49.014;12.052;2022-10-16T14:32:56;98144.00;;;23.90
19040;BMP180;9652;49.014;12.052;2022-10-16T14:35:28;98156.00;;;23.80
19040;BMP180;9652;49.014;12.052;2022-10-16T14:37:58;98155.00;;;23.70
19040;BMP180;9652;49.014;12.052;2022-10-16T14:40:27;98157.00;;;23.80
19040;BMP180;9652;49.014;12.052;2022-10-16T14:42:56;98155.00;;;23.80
19040;BMP180;9652;49.014;12.052;2022-10-16T14:45:27;98138.00;;;23.60
19040;BMP180;9652;49.014;12.052;2022-10-16T14:47:59;98164.00;;;23.70